Time;durP1;ratioP1;P1;durP2;ratioP2;P2;SDS_P1;SDS_P2;PMS_P1;PMS_P2;Temp;Humidity;BMP_temperature;BMP_pressure;BME280_temperature;BME280_humidity;BME280_pressure;Samples;Min_cycle;Max_cycle;Signal;HPM_P1;HPM_P2
2023/09/08 00:02:01;;;;;;;9.18;7.80;;;15.60;99.90;;;;;;10208779;29;20306;-83
2023/09/08 00:07:04;;;;;;;6.60;5.50;;;15.50;99.90;;;;;;10191352;29;20678;-83
2023/09/08 00:12:07;;;;;;;5.68;5.18;;;15.50;99.90;;;;;;10207668;29;20305;-83
2023/09/08 00:17:09;;;;;;;9.88;7.65;;;15.40;99.90;;;;;;10208837;29;20298;-83
2023/09/08 00:22:12;;;;;;;9.52;8.25;;;15.30;99.90;;;;;;10208671;29;20271;-83
2023/09/08 00:27:14;;;;;;;7.00;6.30;;;15.20;99.90;;;;;;10208069;29;20275;-82
2023/09/08 00:32:17;;;;;;;15.05;8.88;;;15.20;99.90;;;;;;10206240;29;20250;-82
2023/09/08 00:37:19;;;;;;;9.00;7.32;;;15.10;99.90;;;;;;10208008;29;20298;-83
2023/09/08 00:42:22;;;;;;;9.88;8.88;;;15.10;99.90;;;;;;10191387;29;20322;-83
2023/09/08 00:47:25;;;;;;;9.10;8.23;;;15.10;99.90;;;;;;10189967;29;20270;-83
2023/09/08 00:52:32;;;;;;;9.10;7.78;;;14.90;99.90;;;;;;10206967;29;20246;-83
2023/09/08 00:57:34;;;;;;;7.70;6.60;;;14.90;99.90;;;;;;10188498;29;20250;-82
2023/09/08 01:02:37;;;;;;;10.38;7.47;;;14.80;99.90;;;;;;10189768;29;20387;-83
2023/09/08 01:07:40;;;;;;;13.85;8.90;;;14.80;99.90;;;;;;10187072;29;20265;-83
2023/09/08 01:12:43;;;;;;;10.13;7.38;;;14.80;99.90;;;;;;10206324;29;20301;-83
2023/09/08 01:17:45;;;;;;;8.55;7.75;;;14.60;99.90;;;;;;10206606;29;20767;-83
2023/09/08 01:22:54;;;;;;;9.35;8.10;;;14.60;99.90;;;;;;10189000;29;20611;-84
2023/09/08 01:28:00;;;;;;;10.82;8.07;;;14.70;99.90;;;;;;10188285;29;20266;-84
2023/09/08 01:33:03;;;;;;;9.68;8.77;;;14.50;99.90;;;;;;10188511;29;20306;-84
2023/09/08 01:38:07;;;;;;;9.07;7.85;;;14.40;99.90;;;;;;10205654;29;20246;-84
2023/09/08 01:43:09;;;;;;;10.05;9.15;;;14.40;99.90;;;;;;10187947;29;20697;-84
2023/09/08 01:48:12;;;;;;;8.75;7.85;;;14.40;99.90;;;;;;10205476;29;20271;-84
2023/09/08 01:53:15;;;;;;;10.32;8.25;;;14.50;99.90;;;;;;10206678;29;20203;-84
2023/09/08 01:58:17;;;;;;;17.58;9.95;;;14.50;99.90;;;;;;10205746;29;20250;-84
2023/09/08 02:03:20;;;;;;;9.18;8.27;;;14.40;99.90;;;;;;10188919;29;20247;-84
2023/09/08 02:08:23;;;;;;;9.30;8.43;;;14.50;99.90;;;;;;10190197;29;20270;-83
2023/09/08 02:13:26;;;;;;;8.63;7.82;;;14.40;99.90;;;;;;10190035;29;20574;-83
2023/09/08 02:18:29;;;;;;;8.27;7.47;;;14.40;99.90;;;;;;10206483;29;20282;-84
2023/09/08 02:23:31;;;;;;;11.30;9.13;;;14.50;99.90;;;;;;10198141;29;20210;-82
2023/09/08 02:28:34;;;;;;;9.13;8.23;;;14.40;99.90;;;;;;10214575;29;20263;-83
2023/09/08 02:33:37;;;;;;;11.98;8.20;;;14.10;99.90;;;;;;10197860;29;20214;-83
2023/09/08 02:38:40;;;;;;;12.10;8.50;;;14.10;99.90;;;;;;10197634;29;20254;-84
2023/09/08 02:43:43;;;;;;;10.43;8.50;;;14.10;99.90;;;;;;10182600;29;20677;-83
2023/09/08 02:48:46;;;;;;;14.23;9.73;;;14.00;99.90;;;;;;10197557;29;20235;-84
2023/09/08 02:53:48;;;;;;;15.20;9.73;;;14.00;99.90;;;;;;10197905;29;20211;-84
2023/09/08 02:58:51;;;;;;;11.25;8.00;;;14.00;99.90;;;;;;10197594;29;20215;-84
2023/09/08 03:03:54;;;;;;;8.85;7.95;;;14.10;99.90;;;;;;10197698;29;20262;-84
2023/09/08 03:08:58;;;;;;;18.40;9.48;;;14.00;99.90;;;;;;10196521;29;20235;-84
2023/09/08 03:14:01;;;;;;;10.48;8.77;;;14.00;99.90;;;;;;10213459;29;20239;-85
2023/09/08 03:19:05;;;;;;;13.90;10.45;;;13.90;99.90;;;;;;10196786;29;20219;-83
2023/09/08 03:24:08;;;;;;;9.85;8.55;;;13.90;99.90;;;;;;10247738;23;20270;-84
2023/09/08 03:29:10;;;;;;;9.60;8.60;;;13.90;99.90;;;;;;10211935;29;20305;-83
2023/09/08 03:34:13;;;;;;;11.02;9.93;;;13.70;99.90;;;;;;10213613;29;20232;-84
2023/09/08 03:39:19;;;;;;;11.18;10.07;;;13.70;99.90;;;;;;10196566;29;20262;-84
2023/09/08 03:44:22;;;;;;;11.65;10.18;;;13.60;99.90;;;;;;10195582;29;20634;-84
2023/09/08 03:49:24;;;;;;;14.40;9.15;;;13.50;99.90;;;;;;10196625;29;20762;-83
2023/09/08 03:54:27;;;;;;;17.05;10.23;;;13.60;99.90;;;;;;10213336;29;20203;-83
2023/09/08 03:59:30;;;;;;;17.10;11.90;;;13.50;99.90;;;;;;10195753;29;20787;-83
2023/09/08 04:04:33;;;;;;;13.00;9.93;;;13.60;99.90;;;;;;10213043;29;20274;-83
2023/09/08 04:09:35;;;;;;;11.95;10.73;;;13.50;99.90;;;;;;10194260;29;20278;-84
2023/09/08 04:14:38;;;;;;;12.32;10.77;;;13.50;99.90;;;;;;10211376;29;20235;-84
2023/09/08 04:19:40;;;;;;;15.38;11.55;;;13.50;99.90;;;;;;10192742;29;20246;-84
2023/09/08 04:24:43;;;;;;;13.35;11.75;;;13.50;99.90;;;;;;10210435;29;20239;-84
2023/09/08 04:29:45;;;;;;;12.57;11.13;;;13.50;99.90;;;;;;10209508;29;20666;-84
2023/09/08 04:34:49;;;;;;;10.32;9.27;;;13.50;99.90;;;;;;10191055;29;20223;-84
2023/09/08 04:39:52;;;;;;;14.18;11.32;;;13.60;99.90;;;;;;10194507;29;20211;-84
2023/09/08 04:44:55;;;;;;;21.42;11.88;;;13.60;99.90;;;;;;10207353;29;20669;-84
2023/09/08 04:49:57;;;;;;;19.73;12.07;;;13.70;99.90;;;;;;10187915;29;20274;-84
2023/09/08 04:55:00;;;;;;;15.65;11.38;;;13.80;99.90;;;;;;10238955;29;20226;-85
2023/09/08 05:00:03;;;;;;;18.52;9.98;;;14.00;99.90;;;;;;10190533;29;20239;-83
2023/09/08 05:05:06;;;;;;;8.63;7.70;;;14.10;99.90;;;;;;10191101;29;20215;-83
2023/09/08 05:10:09;;;;;;;15.50;8.73;;;14.20;99.90;;;;;;10191533;29;20243;-84
2023/09/08 05:15:15;;;;;;;9.90;7.75;;;14.70;99.90;;;;;;10196689;29;20207;-85
2023/09/08 05:20:22;;;;;;;19.50;12.82;;;15.00;99.90;;;;;;10241510;29;20728;-85
2023/09/08 05:25:26;;;;;;;18.80;13.57;;;15.00;99.90;;;;;;10224490;29;20257;-85
2023/09/08 05:30:29;;;;;;;17.88;12.38;;;14.90;99.90;;;;;;10221077;29;20281;-84
2023/09/08 05:35:33;;;;;;;14.57;11.63;;;15.00;99.90;;;;;;10220901;29;20273;-84
2023/09/08 05:40:36;;;;;;;16.08;10.23;;;15.50;99.90;;;;;;10244810;29;20645;-85
2023/09/08 05:45:39;;;;;;;11.35;10.25;;;16.20;99.90;;;;;;10232679;29;20253;-85
2023/09/08 05:50:42;;;;;;;11.32;8.45;;;16.50;99.90;;;;;;10227516;29;20499;-84
2023/09/08 05:55:47;;;;;;;14.43;9.57;;;16.70;99.90;;;;;;10210490;29;20231;-85
2023/09/08 06:00:49;;;;;;;13.82;11.07;;;16.90;99.90;;;;;;10201377;29;20245;-85
2023/09/08 06:05:52;;;;;;;18.50;12.52;;;17.10;99.90;;;;;;10246311;28;20655;-85
2023/09/08 06:10:56;;;;;;;11.82;10.57;;;17.00;99.90;;;;;;10199612;29;20267;-85
2023/09/08 06:16:01;;;;;;;11.07;9.98;;;17.20;99.90;;;;;;10229395;29;20637;-85
2023/09/08 06:21:04;;;;;;;10.65;9.52;;;17.30;99.90;;;;;;10191482;29;20275;-84
2023/09/08 06:26:06;;;;;;;13.55;9.85;;;17.50;99.90;;;;;;10215443;29;20227;-84
2023/09/08 06:31:11;;;;;;;14.32;9.40;;;17.70;99.90;;;;;;10198887;29;20231;-84
2023/09/08 06:36:16;;;;;;;14.95;10.23;;;17.80;99.90;;;;;;10198193;29;20332;-84
2023/09/08 06:41:23;;;;;;;10.55;9.52;;;18.00;99.90;;;;;;10198072;29;20277;-85
2023/09/08 06:46:28;;;;;;;9.32;7.57;;;18.30;99.90;;;;;;10198182;29;20215;-84
2023/09/08 06:51:32;;;;;;;15.82;12.15;;;18.40;99.90;;;;;;10196585;29;20479;-83
2023/09/08 06:56:37;;;;;;;9.50;8.02;;;18.60;99.90;;;;;;10210854;29;20235;-84
2023/09/08 07:01:41;;;;;;;16.35;12.68;;;18.80;99.90;;;;;;10194917;29;20274;-84
2023/09/08 07:06:46;;;;;;;6.78;6.10;;;19.00;99.90;;;;;;10193727;29;20528;-84
2023/09/08 07:11:49;;;;;;;12.57;10.95;;;19.10;99.90;;;;;;10179268;29;20266;-84
2023/09/08 07:16:52;;;;;;;9.18;5.45;;;19.40;99.90;;;;;;10172823;29;20239;-84
2023/09/08 07:21:55;;;;;;;15.25;11.75;;;19.60;99.90;;;;;;10166558;29;20365;-83
2023/09/08 07:26:57;;;;;;;12.20;5.25;;;19.80;99.90;;;;;;10187787;29;20262;-84
2023/09/08 07:32:00;;;;;;;5.40;4.90;;;20.00;99.90;;;;;;10185768;29;20325;-83
2023/09/08 07:37:03;;;;;;;8.93;7.53;;;20.20;99.90;;;;;;10204603;29;20239;-83
2023/09/08 07:42:08;;;;;;;11.02;8.93;;;20.50;99.90;;;;;;10194221;29;20266;-83
2023/09/08 07:47:10;;;;;;;11.98;8.23;;;20.70;99.90;;;;;;10210795;29;20258;-83
2023/09/08 07:52:13;;;;;;;6.13;5.20;;;21.00;99.90;;;;;;10210256;29;20259;-83
2023/09/08 07:57:16;;;;;;;6.60;5.60;;;21.20;99.40;;;;;;10209723;29;20239;-83
2023/09/08 08:02:18;;;;;;;8.18;6.38;;;21.50;99.60;;;;;;10209207;29;20251;-83
2023/09/08 08:07:21;;;;;;;7.82;6.65;;;21.70;98.10;;;;;;10209933;29;20242;-83
2023/09/08 08:12:23;;;;;;;13.80;8.05;;;22.00;97.00;;;;;;10191752;29;20270;-83
2023/09/08 08:17:27;;;;;;;7.97;6.70;;;22.20;96.40;;;;;;10207854;29;20282;-83
2023/09/08 08:22:30;;;;;;;6.47;5.95;;;22.40;94.30;;;;;;10175565;29;20234;-83
2023/09/08 08:27:33;;;;;;;6.57;5.97;;;22.70;92.90;;;;;;10205177;29;20274;-84
2023/09/08 08:32:35;;;;;;;6.25;5.65;;;22.90;92.90;;;;;;10204460;29;20400;-84
2023/09/08 08:37:41;;;;;;;7.38;6.68;;;23.10;91.80;;;;;;10207062;29;20375;-83
2023/09/08 08:42:44;;;;;;;11.95;6.47;;;23.30;90.50;;;;;;10205449;29;20262;-84
2023/09/08 08:47:48;;;;;;;6.53;5.93;;;23.50;90.50;;;;;;10206864;29;20329;-84
2023/09/08 08:52:52;;;;;;;5.70;5.20;;;23.60;91.50;;;;;;10205866;29;20266;-83
2023/09/08 08:57:59;;;;;;;6.70;5.68;;;23.80;91.40;;;;;;10206778;29;20321;-83
2023/09/08 09:03:05;;;;;;;5.72;5.28;;;24.00;90.40;;;;;;10205745;29;20871;-83
2023/09/08 09:08:18;;;;;;;8.55;6.20;;;24.10;90.00;;;;;;10189465;29;20247;-83
2023/09/08 09:13:21;;;;;;;8.40;5.95;;;24.20;86.20;;;;;;10187815;29;20266;-84
2023/09/08 09:18:23;;;;;;;7.13;6.43;;;24.30;85.20;;;;;;10186031;29;20782;-84
2023/09/08 09:23:30;;;;;;;10.35;6.38;;;24.40;85.90;;;;;;10205143;29;20313;-83
2023/09/08 09:28:33;;;;;;;9.68;6.22;;;24.50;83.40;;;;;;10187479;29;20614;-83
2023/09/08 09:33:36;;;;;;;7.00;6.28;;;24.60;82.00;;;;;;10187864;29;20360;-83
2023/09/08 09:38:39;;;;;;;6.88;6.13;;;24.60;79.20;;;;;;10204889;29;20238;-83
2023/09/08 09:43:44;;;;;;;5.40;4.90;;;24.70;76.40;;;;;;10205343;29;20626;-83
2023/09/08 09:48:49;;;;;;;5.80;5.25;;;24.70;83.60;;;;;;10201162;29;20270;-83
2023/09/08 09:53:55;;;;;;;9.75;6.75;;;24.80;83.20;;;;;;10203700;29;20274;-84
2023/09/08 09:58:58;;;;;;;6.70;6.10;;;24.90;80.10;;;;;;10171420;29;20251;-84
2023/09/08 10:04:03;;;;;;;6.57;5.20;;;24.90;79.90;;;;;;10192988;29;20242;-84
2023/09/08 10:09:08;;;;;;;5.93;5.40;;;25.00;77.30;;;;;;10205154;29;20243;-84
2023/09/08 10:14:12;;;;;;;5.35;4.85;;;25.00;76.60;;;;;;10219225;29;20263;-84
2023/09/08 10:19:17;;;;;;;5.50;4.97;;;25.10;74.20;;;;;;10174682;29;20309;-84
2023/09/08 10:24:24;;;;;;;6.05;5.45;;;25.10;75.70;;;;;;10185070;29;20705;-84
2023/09/08 10:29:28;;;;;;;7.63;5.53;;;25.10;76.00;;;;;;10200393;29;20274;-83
2023/09/08 10:34:32;;;;;;;7.15;4.97;;;25.20;68.00;;;;;;10235788;23;20234;-87
2023/09/08 10:39:38;;;;;;;6.53;4.82;;;25.20;70.30;;;;;;10244984;28;20300;-87
2023/09/08 10:44:41;;;;;;;6.63;5.07;;;25.20;69.90;;;;;;10252343;29;20608;-87
2023/09/08 10:49:45;;;;;;;4.65;3.78;;;25.20;72.00;;;;;;10234522;29;20762;-87
2023/09/08 10:54:49;;;;;;;5.68;5.18;;;25.20;68.20;;;;;;10252122;29;20367;-87
2023/09/08 10:59:57;;;;;;;4.75;4.32;;;25.30;65.60;;;;;;10251698;29;20245;-87
2023/09/08 11:04:59;;;;;;;5.05;4.55;;;25.40;67.50;;;;;;10251135;28;20254;-87
2023/09/08 11:10:02;;;;;;;7.97;5.80;;;25.30;69.70;;;;;;10234104;29;20262;-88
2023/09/08 11:15:08;;;;;;;7.10;6.40;;;25.40;61.70;;;;;;10251161;29;20257;-88
2023/09/08 11:20:12;;;;;;;5.70;4.88;;;25.40;61.40;;;;;;10251087;29;20697;-87
2023/09/08 11:25:15;;;;;;;5.78;5.28;;;25.40;55.70;;;;;;10251225;29;20328;-87
2023/09/08 11:30:17;;;;;;;5.97;5.38;;;25.40;57.70;;;;;;10250228;29;20277;-87
2023/09/08 11:35:20;;;;;;;6.85;6.25;;;25.40;53.60;;;;;;10250179;28;20265;-87
2023/09/08 11:40:24;;;;;;;7.55;5.20;;;25.40;53.90;;;;;;10250263;29;20237;-87
2023/09/08 11:45:27;;;;;;;9.23;4.80;;;25.50;50.60;;;;;;10249452;29;20245;-87
2023/09/08 11:50:31;;;;;;;5.90;5.30;;;25.50;54.00;;;;;;10249198;28;20270;-86
2023/09/08 11:55:35;;;;;;;5.88;5.28;;;25.40;52.90;;;;;;10232612;29;20202;-87
2023/09/08 12:00:39;;;;;;;5.82;5.25;;;25.40;50.40;;;;;;10249794;29;20246;-87
2023/09/08 12:05:43;;;;;;;6.47;5.68;;;25.40;49.80;;;;;;10249550;29;20214;-87
2023/09/08 12:10:46;;;;;;;6.13;4.70;;;25.40;50.00;;;;;;10249021;29;20320;-87
2023/09/08 12:15:49;;;;;;;15.30;5.00;;;25.50;49.60;;;;;;10247571;29;20741;-88
2023/09/08 12:21:04;;;;;;;19.13;5.70;;;25.60;51.20;;;;;;10241383;29;20253;-88
2023/09/08 12:26:07;;;;;;;7.25;4.55;;;25.50;54.00;;;;;;10231882;29;20245;-87
2023/09/08 12:31:10;;;;;;;4.07;3.67;;;25.50;56.60;;;;;;10244339;29;20269;-88
2023/09/08 12:36:18;;;;;;;8.50;4.68;;;25.50;53.20;;;;;;10224502;29;20416;-90
2023/09/08 12:41:20;;;;;;;4.35;3.83;;;25.60;54.90;;;;;;10235317;29;20246;-88
2023/09/08 12:46:24;;;;;;;7.88;4.57;;;25.70;55.70;;;;;;10226702;29;20245;-88
2023/09/08 12:51:27;;;;;;;8.10;5.03;;;25.70;54.10;;;;;;10226948;29;20285;-90
2023/09/08 12:56:29;;;;;;;8.10;5.45;;;25.80;55.40;;;;;;10231497;29;20230;-89
2023/09/08 13:01:32;;;;;;;5.45;4.75;;;25.80;58.10;;;;;;10244982;28;20249;-88
2023/09/08 13:06:34;;;;;;;10.90;5.07;;;25.90;66.90;;;;;;10264027;23;20311;-84
2023/09/08 13:11:37;;;;;;;6.05;3.88;;;25.90;53.70;;;;;;10228274;29;20645;-84
2023/09/08 13:16:39;;;;;;;7.45;4.75;;;26.00;48.80;;;;;;10248092;29;20636;-84
2023/09/08 13:21:42;;;;;;;8.05;4.47;;;26.00;57.70;;;;;;10248256;29;20266;-84
2023/09/08 13:26:45;;;;;;;3.92;3.60;;;26.00;65.20;;;;;;10248233;29;20277;-83
2023/09/08 13:31:48;;;;;;;4.82;4.07;;;26.00;61.60;;;;;;10258395;28;20253;-83
2023/09/08 13:36:51;;;;;;;6.15;3.72;;;26.10;64.00;;;;;;10260561;28;20214;-84
2023/09/08 13:41:55;;;;;;;4.63;4.03;;;26.10;56.90;;;;;;10250301;29;20269;-83
2023/09/08 13:46:57;;;;;;;5.90;4.65;;;26.10;52.30;;;;;;10233250;28;20214;-83
2023/09/08 13:52:00;;;;;;;4.93;3.83;;;26.10;51.60;;;;;;10216558;29;20706;-83
2023/09/08 13:57:06;;;;;;;7.40;4.97;;;26.10;56.90;;;;;;10250621;29;20203;-84
2023/09/08 14:02:10;;;;;;;5.75;5.07;;;26.10;55.80;;;;;;10231093;29;20616;-84
2023/09/08 14:07:16;;;;;;;7.82;5.10;;;26.10;58.40;;;;;;10240489;29;20242;-83
2023/09/08 14:12:27;;;;;;;6.85;4.60;;;26.10;65.70;;;;;;10240787;29;20230;-84
2023/09/08 14:17:37;;;;;;;5.20;4.68;;;26.20;60.40;;;;;;10257496;28;20214;-83
2023/09/08 14:22:40;;;;;;;7.82;4.68;;;26.20;54.30;;;;;;10255089;29;20238;-83
2023/09/08 14:27:42;;;;;;;5.90;4.38;;;26.20;61.00;;;;;;10240547;29;20270;-83
2023/09/08 14:32:46;;;;;;;4.18;3.83;;;26.20;56.50;;;;;;10237946;28;20282;-83
2023/09/08 14:37:48;;;;;;;6.68;4.75;;;26.20;54.20;;;;;;10250427;28;20198;-83
2023/09/08 14:42:51;;;;;;;5.43;4.60;;;26.20;60.30;;;;;;10274668;28;20621;-83
2023/09/08 14:47:56;;;;;;;4.13;3.72;;;26.20;57.10;;;;;;10246356;28;20297;-83
2023/09/08 14:53:03;;;;;;;7.10;4.63;;;26.20;58.00;;;;;;10234697;28;20283;-83
2023/09/08 14:58:06;;;;;;;6.50;5.13;;;26.10;49.00;;;;;;10250989;29;20250;-84
2023/09/08 15:03:09;;;;;;;9.57;4.97;;;26.10;46.00;;;;;;10251097;28;20250;-83
2023/09/08 15:08:12;;;;;;;5.47;4.95;;;26.10;47.60;;;;;;10232578;29;20273;-83
2023/09/08 15:13:15;;;;;;;5.13;4.63;;;26.10;48.70;;;;;;10234161;29;20261;-83
2023/09/08 15:18:19;;;;;;;4.05;3.33;;;26.10;44.50;;;;;;10248846;28;20250;-83
2023/09/08 15:23:22;;;;;;;5.65;4.93;;;26.00;49.20;;;;;;10240784;29;20242;-83
2023/09/08 15:28:25;;;;;;;4.78;4.30;;;26.00;50.70;;;;;;10237995;29;20250;-83
2023/09/08 15:33:28;;;;;;;8.10;4.82;;;26.00;46.90;;;;;;10249068;28;20270;-83
2023/09/08 15:38:30;;;;;;;4.78;4.35;;;25.90;49.30;;;;;;10248890;29;20293;-83
2023/09/08 15:43:36;;;;;;;7.68;5.25;;;25.90;50.10;;;;;;10249158;29;20237;-83
2023/09/08 15:48:39;;;;;;;10.10;4.53;;;25.80;45.80;;;;;;10248806;29;20246;-83
2023/09/08 15:53:42;;;;;;;9.43;4.63;;;25.80;51.80;;;;;;10225483;23;20646;-84
2023/09/08 15:58:45;;;;;;;12.05;5.93;;;25.70;56.20;;;;;;10207850;29;20255;-84
2023/09/08 16:03:47;;;;;;;8.75;5.82;;;25.70;51.20;;;;;;10204032;29;20234;-84
2023/09/08 16:08:50;;;;;;;8.98;6.57;;;25.60;56.70;;;;;;10208305;29;20301;-84
2023/09/08 16:13:53;;;;;;;16.17;7.07;;;25.50;54.90;;;;;;10208727;29;20325;-84
2023/09/08 16:18:56;;;;;;;7.38;6.22;;;25.40;52.40;;;;;;10189808;29;20313;-85
2023/09/08 16:23:58;;;;;;;10.48;6.05;;;25.30;55.80;;;;;;10207974;29;20302;-85
2023/09/08 16:29:01;;;;;;;8.02;4.82;;;25.10;56.20;;;;;;10191227;29;20234;-84
2023/09/08 16:34:04;;;;;;;9.82;5.35;;;24.90;63.80;;;;;;9863371;29;9999755;-84
2023/09/08 16:39:07;;;;;;;9.30;5.20;;;24.70;61.30;;;;;;10196509;29;20319;-85
2023/09/08 16:44:10;;;;;;;6.05;5.10;;;24.40;65.60;;;;;;10201510;29;20731;-84
2023/09/08 16:49:18;;;;;;;18.70;6.47;;;24.10;68.50;;;;;;10201593;29;20270;-84
2023/09/08 16:54:20;;;;;;;21.73;6.07;;;23.90;73.60;;;;;;10185134;29;20266;-85
2023/09/08 16:59:23;;;;;;;10.68;6.50;;;23.50;77.90;;;;;;10202394;29;20664;-84
2023/09/08 17:04:27;;;;;;;15.27;6.38;;;23.30;81.60;;;;;;10184883;29;20246;-84
2023/09/08 17:09:30;;;;;;;15.18;6.47;;;23.00;82.40;;;;;;10200893;29;20238;-84
2023/09/08 17:14:36;;;;;;;16.27;6.00;;;22.80;86.10;;;;;;10204790;29;20329;-84
2023/09/08 17:19:39;;;;;;;23.10;7.57;;;22.40;92.20;;;;;;10187312;29;20303;-84
2023/09/08 17:24:41;;;;;;;36.38;9.80;;;22.00;93.70;;;;;;9837848;29;10000541;-84
2023/09/08 17:29:44;;;;;;;41.72;9.50;;;21.70;95.60;;;;;;10180987;29;20344;-83
2023/09/08 17:34:46;;;;;;;41.17;9.38;;;21.40;95.90;;;;;;10201007;29;20336;-84
2023/09/08 17:39:51;;;;;;;27.95;9.20;;;21.00;97.30;;;;;;10199621;29;20291;-83
2023/09/08 17:44:54;;;;;;;30.13;8.65;;;20.80;98.10;;;;;;10224412;29;20301;-84
2023/09/08 17:49:56;;;;;;;37.30;8.60;;;20.50;98.60;;;;;;10240833;28;20242;-85
2023/09/08 17:55:01;;;;;;;26.52;8.07;;;20.30;99.30;;;;;;10245228;29;20257;-85
2023/09/08 18:00:08;;;;;;;15.02;7.90;;;20.20;99.90;;;;;;10246236;29;20274;-84
2023/09/08 18:05:10;;;;;;;33.03;8.32;;;20.00;99.90;;;;;;10246288;28;20242;-85
2023/09/08 18:10:13;;;;;;;35.63;10.23;;;19.70;99.90;;;;;;10232019;29;20242;-84
2023/09/08 18:15:16;;;;;;;43.55;12.32;;;19.40;99.90;;;;;;10229655;29;20779;-84
2023/09/08 18:20:21;;;;;;;35.33;11.27;;;19.10;99.90;;;;;;10244571;29;20290;-83
2023/09/08 18:25:24;;;;;;;18.25;9.18;;;19.00;99.90;;;;;;10207093;29;20860;-83
2023/09/08 18:30:26;;;;;;;21.25;7.97;;;19.00;99.90;;;;;;10175404;29;20786;-83
2023/09/08 18:35:31;;;;;;;21.25;8.13;;;18.70;99.90;;;;;;10209093;29;20274;-82
2023/09/08 18:40:35;;;;;;;17.27;8.45;;;18.40;99.90;;;;;;10194357;29;20323;-82
2023/09/08 18:45:38;;;;;;;28.42;9.35;;;18.20;99.90;;;;;;10193849;29;20242;-82
2023/09/08 18:50:41;;;;;;;27.60;9.77;;;17.90;99.90;;;;;;10193462;29;20251;-83
2023/09/08 18:55:44;;;;;;;22.65;9.27;;;17.80;99.90;;;;;;10209277;29;20258;-83
2023/09/08 19:00:47;;;;;;;35.42;11.10;;;17.60;99.90;;;;;;10190989;29;20306;-83
2023/09/08 19:05:50;;;;;;;41.88;12.00;;;17.40;99.90;;;;;;9853691;29;10000191;-83
2023/09/08 19:10:52;;;;;;;37.33;11.60;;;17.20;99.90;;;;;;10189730;29;20672;-82
2023/09/08 19:15:55;;;;;;;36.40;13.23;;;17.10;99.90;;;;;;10204650;29;20317;-83
2023/09/08 19:20:57;;;;;;;29.58;12.23;;;16.90;99.90;;;;;;10204483;29;20644;-83
2023/09/08 19:26:09;;;;;;;27.05;11.57;;;16.80;99.90;;;;;;10188251;29;20688;-83
2023/09/08 19:31:12;;;;;;;21.15;10.48;;;16.60;99.90;;;;;;10188111;29;20238;-83
2023/09/08 19:36:15;;;;;;;25.85;11.55;;;16.50;99.90;;;;;;10205587;29;20292;-83
2023/09/08 19:41:18;;;;;;;20.70;10.68;;;16.40;99.90;;;;;;10204978;29;20243;-83
2023/09/08 19:46:20;;;;;;;16.25;9.40;;;16.30;99.90;;;;;;10204577;29;20760;-82
2023/09/08 19:51:23;;;;;;;19.08;9.10;;;16.20;99.90;;;;;;10201808;29;20352;-83
2023/09/08 19:56:26;;;;;;;35.97;11.60;;;16.10;99.90;;;;;;10187935;29;20321;-83
2023/09/08 20:01:28;;;;;;;16.10;10.35;;;15.90;99.90;;;;;;10203559;29;20226;-82
2023/09/08 20:06:31;;;;;;;24.20;10.95;;;15.80;99.90;;;;;;10203025;29;20692;-83
2023/09/08 20:11:33;;;;;;;12.00;9.70;;;15.60;99.90;;;;;;10169924;29;20330;-83
2023/09/08 20:16:36;;;;;;;22.30;10.98;;;15.60;99.90;;;;;;10147645;29;20671;-83
2023/09/08 20:21:39;;;;;;;17.70;11.20;;;15.50;99.90;;;;;;10191910;29;20633;-83
2023/09/08 20:26:42;;;;;;;20.10;11.40;;;15.40;99.90;;;;;;10186665;29;20730;-83
2023/09/08 20:31:47;;;;;;;15.32;11.38;;;15.30;99.90;;;;;;10201229;29;20218;-83
2023/09/08 20:36:50;;;;;;;19.00;11.48;;;15.30;99.90;;;;;;10202043;29;20744;-83
2023/09/08 20:41:52;;;;;;;23.40;11.32;;;15.20;99.90;;;;;;10187795;29;20242;-84
2023/09/08 20:46:55;;;;;;;16.02;10.85;;;15.20;99.90;;;;;;10206898;29;20701;-84
2023/09/08 20:51:57;;;;;;;16.08;11.68;;;15.10;99.90;;;;;;10205870;29;20793;-84
2023/09/08 20:57:00;;;;;;;14.63;12.32;;;15.00;99.90;;;;;;10176887;29;20267;-84
2023/09/08 21:02:03;;;;;;;15.55;11.40;;;14.80;99.90;;;;;;10205277;29;20599;-84
2023/09/08 21:07:05;;;;;;;16.52;12.25;;;14.90;99.90;;;;;;10203912;29;20242;-84
2023/09/08 21:12:08;;;;;;;18.05;12.27;;;14.80;99.90;;;;;;10205578;29;20234;-85
2023/09/08 21:17:11;;;;;;;19.33;13.27;;;14.70;99.90;;;;;;10219812;29;20237;-84
2023/09/08 21:22:14;;;;;;;20.38;12.88;;;14.70;99.90;;;;;;10202547;29;20302;-84
2023/09/08 21:27:16;;;;;;;15.32;11.45;;;14.60;99.90;;;;;;10205202;29;20667;-84
2023/09/08 21:32:20;;;;;;;32.13;13.15;;;14.50;99.90;;;;;;10205660;29;20242;-84
2023/09/08 21:37:23;;;;;;;30.60;13.10;;;14.40;99.90;;;;;;10205239;29;20305;-84
2023/09/08 21:42:25;;;;;;;19.95;12.13;;;14.40;99.90;;;;;;10187337;29;20294;-84
2023/09/08 21:47:30;;;;;;;21.88;13.60;;;14.40;99.90;;;;;;10205722;29;20692;-84
2023/09/08 21:52:32;;;;;;;19.95;12.30;;;14.30;99.90;;;;;;10205335;29;20263;-84
2023/09/08 21:57:41;;;;;;;20.83;11.98;;;14.20;99.90;;;;;;10203841;29;20266;-84
2023/09/08 22:02:43;;;;;;;22.50;14.13;;;14.20;99.90;;;;;;10201562;29;20317;-84
2023/09/08 22:07:46;;;;;;;20.83;13.85;;;14.20;99.90;;;;;;10204993;29;20699;-84
2023/09/08 22:12:49;;;;;;;25.80;17.45;;;14.10;99.90;;;;;;10198470;29;20355;-84
2023/09/08 22:17:52;;;;;;;24.45;17.98;;;14.00;99.90;;;;;;10204596;29;20247;-84
2023/09/08 22:22:54;;;;;;;24.67;16.73;;;13.90;99.90;;;;;;10205872;29;20751;-84
2023/09/08 22:27:58;;;;;;;17.67;14.70;;;13.80;99.90;;;;;;10205673;29;20246;-84
2023/09/08 22:33:00;;;;;;;17.25;14.90;;;13.80;99.90;;;;;;10204841;29;20262;-84
2023/09/08 22:38:03;;;;;;;17.60;13.18;;;13.80;99.90;;;;;;10210823;29;20692;-84
2023/09/08 22:43:06;;;;;;;15.52;13.70;;;13.70;99.90;;;;;;10212498;29;20318;-84
2023/09/08 22:48:09;;;;;;;16.00;12.10;;;13.60;99.90;;;;;;10194897;29;20969;-84
2023/09/08 22:53:13;;;;;;;14.23;11.63;;;13.60;99.90;;;;;;10211669;29;20801;-84
2023/09/08 22:58:16;;;;;;;19.15;12.52;;;13.50;99.90;;;;;;10211850;29;20647;-84
2023/09/08 23:03:18;;;;;;;13.88;12.45;;;13.40;99.90;;;;;;10195293;29;20278;-84
2023/09/08 23:08:21;;;;;;;16.83;12.90;;;13.40;99.90;;;;;;10211578;29;20238;-84
2023/09/08 23:13:23;;;;;;;25.83;12.98;;;13.40;99.90;;;;;;10211470;29;20665;-84
2023/09/08 23:18:26;;;;;;;19.60;13.15;;;13.30;99.90;;;;;;10210121;29;20246;-84
2023/09/08 23:23:29;;;;;;;15.77;14.07;;;13.30;99.90;;;;;;10194027;29;20238;-84
2023/09/08 23:28:31;;;;;;;20.20;13.90;;;13.30;99.90;;;;;;10211317;29;20305;-84
2023/09/08 23:33:34;;;;;;;18.45;13.75;;;13.30;99.90;;;;;;10194217;29;20294;-84
2023/09/08 23:38:37;;;;;;;14.82;13.23;;;13.20;99.90;;;;;;10210328;29;20278;-84
2023/09/08 23:43:39;;;;;;;19.77;14.82;;;13.20;99.90;;;;;;10210700;29;20270;-84
2023/09/08 23:48:42;;;;;;;16.65;13.52;;;13.10;99.90;;;;;;10209834;29;20246;-84
2023/09/08 23:53:44;;;;;;;14.35;12.35;;;13.10;99.90;;;;;;10210183;29;20735;-84
2023/09/08 23:58:47;;;;;;;20.58;12.82;;;13.00;99.90;;;;;;10193343;29;20235;-84
